sensor_id;sensor_type;location;lat;lon;timestamp;P1;P2;P0
68198;PMS7003;55021;51.554;17.044;2023-06-22T00:04:07;54.50;44.75;29.00
68198;PMS7003;55021;51.554;17.044;2023-06-22T00:19:09;55.00;42.75;28.00
68198;PMS7003;55021;51.554;17.044;2023-06-22T00:34:15;54.25;43.00;28.00
68198;PMS7003;55021;51.554;17.044;2023-06-22T00:49:18;57.50;43.75;27.00
68198;PMS7003;55021;51.554;17.044;2023-06-22T01:04:21;56.00;44.50;28.00
68198;PMS7003;55021;51.554;17.044;2023-06-22T01:19:29;56.25;45.00;28.25
68198;PMS7003;55021;51.554;17.044;2023-06-22T01:34:40;54.00;43.75;28.50
68198;PMS7003;55021;51.554;17.044;2023-06-22T01:49:44;55.00;44.00;28.00
68198;PMS7003;55021;51.554;17.044;2023-06-22T02:04:48;53.00;42.25;27.00
68198;PMS7003;55021;51.554;17.044;2023-06-22T02:19:57;55.50;43.00;27.00
68198;PMS7003;55021;51.554;17.044;2023-06-22T02:34:59;47.25;39.00;25.00
68198;PMS7003;55021;51.554;17.044;2023-06-22T02:50:01;48.00;40.00;26.75
68198;PMS7003;55021;51.554;17.044;2023-06-22T03:20:21;56.50;45.00;30.00
68198;PMS7003;55021;51.554;17.044;2023-06-22T03:35:34;61.75;46.00;29.00
68198;PMS7003;55021;51.554;17.044;2023-06-22T03:50:37;59.25;46.00;30.00
68198;PMS7003;55021;51.554;17.044;2023-06-22T04:05:39;58.25;46.75;30.00
68198;PMS7003;55021;51.554;17.044;2023-06-22T04:20:42;61.00;47.25;30.25
68198;PMS7003;55021;51.554;17.044;2023-06-22T04:35:48;62.00;49.50;32.00
68198;PMS7003;55021;51.554;17.044;2023-06-22T04:51:22;62.50;49.00;32.00
68198;PMS7003;55021;51.554;17.044;2023-06-22T05:06:24;57.00;46.00;30.00
68198;PMS7003;55021;51.554;17.044;2023-06-22T05:21:27;51.75;42.50;27.50
68198;PMS7003;55021;51.554;17.044;2023-06-22T05:36:29;50.75;41.00;26.50
68198;PMS7003;55021;51.554;17.044;2023-06-22T05:51:31;48.00;39.00;24.00
68198;PMS7003;55021;51.554;17.044;2023-06-22T06:06:58;29.50;29.00;18.25
68198;PMS7003;55021;51.554;17.044;2023-06-22T06:22:03;34.50;30.25;19.25
68198;PMS7003;55021;51.554;17.044;2023-06-22T06:37:06;27.00;23.00;14.75
68198;PMS7003;55021;51.554;17.044;2023-06-22T06:52:14;26.25;25.00;15.25
68198;PMS7003;55021;51.554;17.044;2023-06-22T07:07:16;25.00;21.50;13.50
68198;PMS7003;55021;51.554;17.044;2023-06-22T07:22:22;19.25;16.75;10.00
68198;PMS7003;55021;51.554;17.044;2023-06-22T07:37:27;21.00;19.00;12.25
68198;PMS7003;55021;51.554;17.044;2023-06-22T07:52:32;21.50;19.75;13.00
68198;PMS7003;55021;51.554;17.044;2023-06-22T08:07:37;22.50;21.50;13.00
68198;PMS7003;55021;51.554;17.044;2023-06-22T08:22:40;24.25;23.00;13.25
68198;PMS7003;55021;51.554;17.044;2023-06-22T08:37:44;29.75;26.50;15.25
68198;PMS7003;55021;51.554;17.044;2023-06-22T08:52:48;25.75;25.00;15.50
68198;PMS7003;55021;51.554;17.044;2023-06-22T09:07:51;23.50;21.75;14.50
68198;PMS7003;55021;51.554;17.044;2023-06-22T09:22:54;25.50;21.25;14.25
68198;PMS7003;55021;51.554;17.044;2023-06-22T09:37:57;21.75;18.50;12.00
68198;PMS7003;55021;51.554;17.044;2023-06-22T09:53:00;19.50;17.00;10.50
68198;PMS7003;55021;51.554;17.044;2023-06-22T10:08:03;19.25;17.25;10.75
68198;PMS7003;55021;51.554;17.044;2023-06-22T10:23:06;18.75;15.75;10.75
68198;PMS7003;55021;51.554;17.044;2023-06-22T10:38:19;13.00;11.75;6.00
68198;PMS7003;55021;51.554;17.044;2023-06-22T10:53:21;13.25;13.25;8.00
68198;PMS7003;55021;51.554;17.044;2023-06-22T11:08:27;14.75;13.50;8.50
68198;PMS7003;55021;51.554;17.044;2023-06-22T11:23:30;13.00;11.25;7.25
68198;PMS7003;55021;51.554;17.044;2023-06-22T11:53:38;11.25;11.00;6.00
68198;PMS7003;55021;51.554;17.044;2023-06-22T12:08:41;12.00;11.50;6.75
68198;PMS7003;55021;51.554;17.044;2023-06-22T12:23:44;13.75;12.50;7.00
68198;PMS7003;55021;51.554;17.044;2023-06-22T12:38:47;13.50;13.50;7.75
68198;PMS7003;55021;51.554;17.044;2023-06-22T12:53:49;13.50;11.75;7.50
68198;PMS7003;55021;51.554;17.044;2023-06-22T13:08:52;13.25;12.50;6.25
68198;PMS7003;55021;51.554;17.044;2023-06-22T13:23:54;13.75;13.00;7.00
68198;PMS7003;55021;51.554;17.044;2023-06-22T13:38:57;10.25;10.25;5.00
68198;PMS7003;55021;51.554;17.044;2023-06-22T13:53:59;12.50;12.00;6.00
68198;PMS7003;55021;51.554;17.044;2023-06-22T14:09:01;15.25;13.75;8.00
68198;PMS7003;55021;51.554;17.044;2023-06-22T14:24:04;13.25;13.25;7.00
68198;PMS7003;55021;51.554;17.044;2023-06-22T14:39:07;12.00;12.00;6.00
68198;PMS7003;55021;51.554;17.044;2023-06-22T14:54:10;10.75;10.25;5.00
68198;PMS7003;55021;51.554;17.044;2023-06-22T15:09:14;12.00;12.00;6.50
68198;PMS7003;55021;51.554;17.044;2023-06-22T15:24:17;10.75;10.75;5.75
68198;PMS7003;55021;51.554;17.044;2023-06-22T15:39:19;11.25;11.25;6.00
68198;PMS7003;55021;51.554;17.044;2023-06-22T15:54:22;11.25;11.25;6.25
68198;PMS7003;55021;51.554;17.044;2023-06-22T16:09:24;10.25;10.25;5.50
68198;PMS7003;55021;51.554;17.044;2023-06-22T16:24:27;11.75;11.00;6.00
68198;PMS7003;55021;51.554;17.044;2023-06-22T16:39:29;13.25;12.00;6.50
68198;PMS7003;55021;51.554;17.044;2023-06-22T16:54:32;13.75;13.25;8.50
68198;PMS7003;55021;51.554;17.044;2023-06-22T17:09:35;13.00;11.00;6.75
68198;PMS7003;55021;51.554;17.044;2023-06-22T17:24:39;14.75;12.25;7.25
68198;PMS7003;55021;51.554;17.044;2023-06-22T17:39:42;14.50;13.00;8.00
68198;PMS7003;55021;51.554;17.044;2023-06-22T17:54:53;11.25;11.00;6.00
68198;PMS7003;55021;51.554;17.044;2023-06-22T18:09:57;15.50;14.50;9.00
68198;PMS7003;55021;51.554;17.044;2023-06-22T18:25:01;13.50;13.00;6.00
68198;PMS7003;55021;51.554;17.044;2023-06-22T18:40:04;13.50;12.00;6.50
68198;PMS7003;55021;51.554;17.044;2023-06-22T18:55:12;13.00;12.75;6.75
68198;PMS7003;55021;51.554;17.044;2023-06-22T19:10:22;14.25;13.75;7.00
68198;PMS7003;55021;51.554;17.044;2023-06-22T19:25:26;14.00;14.00;7.00
68198;PMS7003;55021;51.554;17.044;2023-06-22T19:40:30;16.50;13.75;8.00
68198;PMS7003;55021;51.554;17.044;2023-06-22T19:55:32;14.00;12.00;6.75
68198;PMS7003;55021;51.554;17.044;2023-06-22T20:10:37;14.50;14.50;7.25
68198;PMS7003;55021;51.554;17.044;2023-06-22T20:25:40;13.25;13.25;7.00
68198;PMS7003;55021;51.554;17.044;2023-06-22T20:40:43;14.25;12.75;7.75
68198;PMS7003;55021;51.554;17.044;2023-06-22T20:55:46;16.00;16.00;8.75
68198;PMS7003;55021;51.554;17.044;2023-06-22T21:10:48;20.00;17.00;9.75
68198;PMS7003;55021;51.554;17.044;2023-06-22T21:25:51;18.00;17.25;9.50
68198;PMS7003;55021;51.554;17.044;2023-06-22T21:40:53;18.25;15.50;8.50
68198;PMS7003;55021;51.554;17.044;2023-06-22T21:55:55;19.25;16.75;10.25
68198;PMS7003;55021;51.554;17.044;2023-06-22T22:10:58;18.25;16.00;10.00
68198;PMS7003;55021;51.554;17.044;2023-06-22T22:26:00;18.00;17.00;10.00
68198;PMS7003;55021;51.554;17.044;2023-06-22T22:41:02;18.50;16.50;9.00
68198;PMS7003;55021;51.554;17.044;2023-06-22T22:56:05;15.00;15.00;10.00
68198;PMS7003;55021;51.554;17.044;2023-06-22T23:11:08;19.50;19.00;10.25
68198;PMS7003;55021;51.554;17.044;2023-06-22T23:26:10;17.50;16.50;9.25
68198;PMS7003;55021;51.554;17.044;2023-06-22T23:41:12;19.00;16.75;9.00
68198;PMS7003;55021;51.554;17.044;2023-06-22T23:56:15;20.75;17.75;9.75
